createdAt,value
2022-12-03T00:00:17.819Z,1.36
2022-12-03T00:02:44.271Z,1.32
2022-12-03T00:05:10.783Z,1.29
2022-12-03T00:07:37.558Z,1.38
2022-12-03T00:10:05.306Z,1.41
2022-12-03T00:12:31.651Z,1.41
2022-12-03T00:14:58.248Z,1.33
2022-12-03T00:17:24.736Z,1.33
2022-12-03T00:19:51.079Z,1.39
2022-12-03T00:22:17.371Z,1.38
2022-12-03T00:24:43.689Z,1.40
2022-12-03T00:27:10.017Z,1.40
2022-12-03T00:29:38.147Z,1.45
2022-12-03T00:32:04.620Z,1.38
2022-12-03T00:34:31.064Z,1.43
2022-12-03T00:36:57.392Z,1.43
2022-12-03T00:39:23.712Z,1.45
2022-12-03T00:41:50.057Z,1.44
2022-12-03T00:44:17.578Z,1.45
2022-12-03T00:46:43.995Z,1.38
2022-12-03T00:49:15.376Z,1.45
2022-12-03T00:51:41.705Z,1.42
2022-12-03T00:54:08.245Z,1.44
2022-12-03T00:56:34.610Z,1.47
2022-12-03T00:59:00.940Z,1.41
2022-12-03T01:01:27.271Z,1.42
2022-12-03T01:03:53.635Z,1.42
2022-12-03T01:06:20.272Z,1.47
2022-12-03T01:08:46.611Z,1.42
2022-12-03T01:11:31.482Z,1.49
2022-12-03T01:13:58.224Z,1.44
2022-12-03T01:16:24.589Z,1.45
2022-12-03T01:18:52.685Z,1.44
2022-12-03T01:21:19.586Z,1.45
2022-12-03T01:23:46.203Z,1.39
2022-12-03T01:26:12.523Z,1.38
2022-12-03T01:28:38.867Z,1.42
2022-12-03T01:31:23.654Z,1.40
2022-12-03T01:33:50.049Z,1.43
2022-12-03T01:36:16.339Z,1.48
2022-12-03T01:38:43.740Z,1.41
2022-12-03T01:41:11.831Z,1.44
2022-12-03T01:43:38.686Z,1.42
2022-12-03T01:46:05.217Z,1.42
2022-12-03T01:48:35.543Z,1.45
2022-12-03T01:51:02.021Z,1.41
2022-12-03T01:53:28.359Z,1.54
2022-12-03T01:55:54.752Z,1.46
2022-12-03T01:58:25.600Z,1.51
2022-12-03T02:00:51.934Z,1.49
2022-12-03T02:03:23.201Z,1.45
2022-12-03T02:05:50.177Z,1.44
2022-12-03T02:08:34.520Z,1.36
2022-12-03T02:11:09.320Z,1.33
2022-12-03T02:13:36.299Z,1.35
2022-12-03T02:16:04.257Z,1.39
2022-12-03T02:18:30.627Z,1.44
2022-12-03T02:21:18.501Z,1.43
2022-12-03T02:24:10.187Z,1.38
2022-12-03T02:26:36.547Z,1.41
2022-12-03T02:29:03.919Z,1.41
2022-12-03T02:31:30.280Z,1.39
2022-12-03T02:33:56.714Z,1.42
2022-12-03T02:36:23.252Z,1.44
2022-12-03T02:38:50.812Z,1.40
2022-12-03T02:41:38.764Z,1.47
2022-12-03T02:44:06.826Z,1.42
2022-12-03T02:46:33.979Z,1.41
2022-12-03T02:49:01.746Z,1.42
2022-12-03T02:51:28.138Z,1.41
2022-12-03T02:53:55.871Z,1.47
2022-12-03T02:56:26.781Z,1.39
2022-12-03T02:58:56.886Z,1.37
2022-12-03T03:01:23.311Z,1.35
2022-12-03T03:03:51.486Z,1.46
2022-12-03T03:06:19.215Z,1.38
2022-12-03T03:08:46.487Z,1.43
2022-12-03T03:11:12.996Z,1.34
2022-12-03T03:13:39.639Z,1.38
2022-12-03T03:16:07.590Z,1.32
2022-12-03T03:18:34.959Z,1.35
2022-12-03T03:21:01.792Z,1.37
2022-12-03T03:23:28.305Z,1.42
2022-12-03T03:26:14.202Z,1.30
2022-12-03T03:28:45.476Z,1.35
2022-12-03T03:31:15.986Z,1.36
2022-12-03T03:33:45.190Z,1.35
2022-12-03T03:36:13.063Z,1.34
2022-12-03T03:38:41.108Z,1.33
2022-12-03T03:41:09.472Z,1.25
2022-12-03T03:43:38.123Z,1.28
2022-12-03T03:46:06.396Z,1.26
2022-12-03T03:48:34.748Z,1.33
2022-12-03T03:51:03.581Z,1.25
2022-12-03T03:53:30.824Z,1.25
2022-12-03T03:55:57.181Z,1.32
2022-12-03T03:58:23.687Z,1.26
2022-12-03T04:00:50.107Z,1.11
2022-12-03T04:03:17.084Z,1.10
2022-12-03T04:05:43.420Z,1.21
2022-12-03T04:08:09.787Z,1.19
2022-12-03T04:10:54.608Z,1.16
2022-12-03T04:13:20.931Z,1.18
2022-12-03T04:15:47.455Z,1.10
2022-12-03T04:18:32.497Z,1.15
2022-12-03T04:21:18.795Z,1.14
2022-12-03T04:23:45.157Z,1.03
2022-12-03T04:26:30.076Z,1.15
2022-12-03T04:28:56.465Z,1.11
2022-12-03T04:31:41.149Z,1.09
2022-12-03T04:34:27.752Z,1.16
2022-12-03T04:36:54.861Z,1.17
2022-12-03T04:39:21.206Z,1.18
2022-12-03T04:41:47.519Z,1.09
2022-12-03T04:44:32.423Z,1.17
2022-12-03T04:47:01.942Z,1.15
2022-12-03T04:49:28.536Z,1.17
2022-12-03T04:51:54.855Z,1.13
2022-12-03T04:54:21.188Z,1.18
2022-12-03T04:56:47.492Z,1.04
2022-12-03T04:59:16.577Z,1.01
2022-12-03T05:01:43.865Z,1.08
2022-12-03T05:04:10.770Z,1.11
2022-12-03T05:06:37.149Z,1.03
2022-12-03T05:09:03.623Z,0.95
2022-12-03T05:11:30.135Z,1.00
2022-12-03T05:13:56.617Z,1.03
2022-12-03T05:16:23.013Z,1.10
2022-12-03T05:18:49.382Z,1.09
2022-12-03T05:21:15.858Z,1.12
2022-12-03T05:23:42.566Z,1.03
2022-12-03T05:26:08.917Z,1.09
2022-12-03T05:28:35.332Z,1.14
2022-12-03T05:31:01.720Z,1.06
2022-12-03T05:33:28.192Z,1.11
2022-12-03T05:35:54.566Z,1.08
2022-12-03T05:38:20.872Z,1.11
2022-12-03T05:40:47.188Z,1.03
2022-12-03T05:43:13.620Z,1.05
2022-12-03T05:45:41.409Z,1.10
2022-12-03T05:48:13.815Z,1.11
2022-12-03T05:50:43.839Z,1.09
2022-12-03T05:53:17.163Z,1.06
2022-12-03T05:55:43.687Z,1.14
2022-12-03T05:58:10.162Z,1.13
2022-12-03T06:00:42.430Z,1.15
2022-12-03T06:03:09.991Z,1.09
2022-12-03T06:05:36.459Z,1.04
2022-12-03T06:08:02.859Z,1.05
2022-12-03T06:10:29.670Z,0.99
2022-12-03T06:12:56.309Z,0.93
2022-12-03T06:15:23.064Z,0.89
2022-12-03T06:17:49.536Z,0.89
2022-12-03T06:20:18.298Z,0.97
2022-12-03T06:22:44.908Z,0.93
2022-12-03T06:25:12.156Z,0.97
2022-12-03T06:27:38.551Z,0.97
2022-12-03T06:30:06.757Z,0.93
2022-12-03T06:32:33.166Z,0.89
2022-12-03T06:34:59.494Z,0.99
2022-12-03T06:37:25.832Z,0.85
2022-12-03T06:39:52.140Z,0.90
2022-12-03T06:42:18.571Z,0.88
2022-12-03T06:44:44.871Z,0.82
2022-12-03T06:47:11.174Z,0.78
2022-12-03T06:49:37.485Z,0.88
2022-12-03T06:52:05.309Z,0.90
2022-12-03T06:54:31.651Z,0.86
2022-12-03T06:56:57.984Z,0.86
2022-12-03T06:59:24.321Z,0.81
2022-12-03T07:01:50.641Z,0.90
2022-12-03T07:04:17.010Z,0.83
2022-12-03T07:06:43.675Z,0.84
2022-12-03T07:09:10.018Z,0.80
2022-12-03T07:11:40.260Z,0.76
2022-12-03T07:14:08.236Z,0.74
2022-12-03T07:16:35.824Z,0.69
2022-12-03T07:19:03.387Z,0.71
2022-12-03T07:21:29.711Z,0.73
2022-12-03T07:23:56.104Z,0.61
2022-12-03T07:26:22.443Z,0.62
2022-12-03T07:28:48.763Z,0.59
2022-12-03T07:31:16.201Z,0.65
2022-12-03T07:33:42.715Z,0.64
2022-12-03T07:36:09.651Z,0.69
2022-12-03T07:38:36.120Z,0.63
2022-12-03T07:41:02.462Z,0.64
2022-12-03T07:43:28.785Z,0.68
2022-12-03T07:45:55.094Z,0.72
2022-12-03T07:48:21.403Z,0.73
2022-12-03T07:50:47.786Z,0.69
2022-12-03T07:53:15.056Z,0.68
2022-12-03T07:55:41.380Z,0.74
2022-12-03T07:58:08.920Z,0.76
2022-12-03T08:00:35.291Z,0.61
2022-12-03T08:03:01.670Z,0.71
2022-12-03T08:05:29.474Z,0.76
2022-12-03T08:07:55.980Z,0.77
2022-12-03T08:10:25.125Z,0.78
2022-12-03T08:12:51.573Z,0.83
2022-12-03T08:15:20.366Z,0.77
2022-12-03T08:17:53.515Z,0.79
2022-12-03T08:20:22.200Z,0.78
2022-12-03T08:22:51.227Z,0.83
2022-12-03T08:25:28.459Z,0.82
2022-12-03T08:28:12.632Z,0.88
2022-12-03T08:30:40.015Z,0.84
2022-12-03T08:33:28.259Z,0.88
2022-12-03T08:35:54.898Z,0.87
2022-12-03T08:38:23.844Z,0.91
2022-12-03T08:40:52.457Z,0.83
2022-12-03T08:43:25.946Z,0.87
2022-12-03T08:45:54.516Z,0.94
2022-12-03T08:48:36.739Z,0.93
2022-12-03T08:51:21.466Z,0.94
2022-12-03T08:53:51.938Z,0.93
2022-12-03T08:56:25.104Z,0.93
2022-12-03T08:58:54.137Z,0.91
2022-12-03T09:01:30.797Z,0.91
2022-12-03T09:04:13.459Z,0.89
2022-12-03T09:06:39.824Z,0.93
2022-12-03T09:09:06.966Z,0.94
2022-12-03T09:11:33.403Z,0.91
2022-12-03T09:13:59.733Z,0.83
2022-12-03T09:16:26.102Z,0.87
2022-12-03T09:18:52.560Z,0.80
2022-12-03T09:21:18.884Z,0.83
2022-12-03T09:23:45.192Z,0.98
2022-12-03T09:26:11.494Z,0.97
2022-12-03T09:28:37.805Z,0.89
2022-12-03T09:31:04.138Z,0.84
2022-12-03T09:33:32.271Z,0.82
2022-12-03T09:35:59.438Z,0.80
2022-12-03T09:38:25.989Z,0.90
2022-12-03T09:40:53.854Z,0.95
2022-12-03T09:43:20.630Z,0.92
2022-12-03T09:45:48.935Z,0.93
2022-12-03T09:48:18.147Z,0.96
2022-12-03T09:50:44.928Z,0.99
2022-12-03T09:53:17.447Z,0.93
2022-12-03T09:55:45.578Z,0.95
2022-12-03T09:58:13.898Z,0.94
2022-12-03T10:00:41.873Z,0.90
2022-12-03T10:03:12.347Z,1.01
2022-12-03T10:05:43.734Z,1.01
2022-12-03T10:08:18.376Z,0.98
2022-12-03T10:10:44.868Z,1.01
2022-12-03T10:13:25.673Z,1.02
2022-12-03T10:15:55.373Z,1.01
2022-12-03T10:18:24.834Z,1.04
2022-12-03T10:20:51.984Z,1.11
2022-12-03T10:23:29.646Z,1.00
2022-12-03T10:26:02.911Z,0.93
2022-12-03T10:28:38.938Z,0.99
2022-12-03T10:31:07.715Z,1.06
2022-12-03T10:33:44.576Z,1.08
2022-12-03T10:36:20.615Z,1.12
2022-12-03T10:39:04.951Z,1.03
2022-12-03T10:41:31.347Z,1.20
2022-12-03T10:44:14.771Z,1.22
2022-12-03T10:46:41.303Z,1.26
2022-12-03T10:49:17.005Z,1.32
2022-12-03T10:51:44.547Z,1.26
2022-12-03T10:54:21.100Z,1.30
2022-12-03T10:56:49.231Z,1.29
2022-12-03T10:59:22.632Z,1.34
2022-12-03T11:01:50.495Z,1.29
2022-12-03T11:04:32.228Z,1.30
2022-12-03T11:06:58.824Z,1.32
2022-12-03T11:09:29.395Z,1.34
2022-12-03T11:11:55.952Z,1.22
2022-12-03T11:14:51.391Z,1.21
2022-12-03T11:18:06.542Z,1.15
2022-12-03T11:20:35.993Z,1.21
2022-12-03T11:23:02.343Z,1.08
2022-12-03T11:25:28.659Z,1.13
2022-12-03T11:28:10.187Z,1.11
2022-12-03T11:30:48.918Z,1.21
2022-12-03T11:33:30.065Z,1.17
2022-12-03T11:36:05.447Z,1.05
2022-12-03T11:38:38.092Z,1.16
2022-12-03T11:41:10.424Z,1.21
2022-12-03T11:43:52.059Z,1.22
2022-12-03T11:46:25.324Z,1.23
2022-12-03T11:48:55.425Z,1.25
2022-12-03T11:51:24.370Z,1.22
2022-12-03T11:53:52.963Z,1.13
2022-12-03T11:56:23.850Z,1.26
2022-12-03T11:58:59.217Z,1.20
2022-12-03T12:01:40.500Z,1.22
2022-12-03T12:04:25.741Z,1.27
2022-12-03T12:06:53.604Z,1.15
2022-12-03T12:09:52.665Z,1.20
2022-12-03T12:12:40.768Z,1.16
2022-12-03T12:15:32.809Z,1.18
2022-12-03T12:18:37.780Z,1.17
2022-12-03T12:21:42.535Z,1.17
2022-12-03T12:24:32.151Z,1.13
2022-12-03T12:27:01.231Z,1.19
2022-12-03T12:29:28.112Z,1.20
2022-12-03T12:32:00.340Z,1.22
2022-12-03T12:34:26.776Z,1.31
2022-12-03T12:36:55.915Z,1.23
2022-12-03T12:39:22.361Z,1.31
2022-12-03T12:41:50.396Z,1.29
2022-12-03T12:44:18.249Z,1.32
2022-12-03T12:46:48.464Z,1.39
2022-12-03T12:49:24.976Z,1.31
2022-12-03T12:51:51.339Z,1.30
2022-12-03T12:54:18.656Z,1.37
2022-12-03T12:56:49.679Z,1.30
2022-12-03T12:59:20.028Z,1.25
2022-12-03T13:01:49.017Z,1.31
2022-12-03T13:04:22.504Z,1.33
2022-12-03T13:06:51.610Z,1.36
2022-12-03T13:09:25.851Z,1.38
2022-12-03T13:12:00.647Z,1.39
2022-12-03T13:14:36.777Z,1.33
2022-12-03T13:17:24.431Z,1.34
2022-12-03T13:20:00.584Z,1.37
2022-12-03T13:22:31.659Z,1.38
2022-12-03T13:25:06.764Z,1.27
2022-12-03T13:27:33.115Z,1.30
2022-12-03T13:30:13.414Z,1.37
2022-12-03T13:32:41.452Z,1.33
2022-12-03T13:35:35.791Z,1.23
2022-12-03T13:38:02.986Z,1.21
2022-12-03T13:40:32.800Z,1.22
2022-12-03T13:42:59.335Z,1.20
2022-12-03T13:45:39.090Z,1.36
2022-12-03T13:48:24.733Z,1.35
2022-12-03T13:50:53.159Z,1.30
2022-12-03T13:53:29.110Z,1.29
2022-12-03T13:56:03.179Z,1.23
2022-12-03T13:58:29.558Z,1.25
2022-12-03T14:00:56.037Z,1.29
2022-12-03T14:03:23.269Z,1.34
2022-12-03T14:05:49.584Z,1.32
2022-12-03T14:08:15.951Z,1.32
2022-12-03T14:10:42.319Z,1.31
2022-12-03T14:13:08.707Z,1.32
2022-12-03T14:15:34.998Z,1.25
2022-12-03T14:18:02.206Z,1.23
2022-12-03T14:20:28.522Z,1.24
2022-12-03T14:22:59.359Z,1.19
2022-12-03T14:25:26.350Z,1.24
2022-12-03T14:27:52.647Z,1.21
2022-12-03T14:30:19.051Z,1.26
2022-12-03T14:32:45.455Z,1.22
2022-12-03T14:35:11.752Z,1.25
2022-12-03T14:37:38.107Z,1.24
2022-12-03T14:40:07.188Z,1.26
2022-12-03T14:42:33.558Z,1.27
2022-12-03T14:45:00.004Z,1.27
2022-12-03T14:47:26.303Z,1.25
2022-12-03T14:49:53.268Z,1.23
2022-12-03T14:52:20.376Z,1.20
2022-12-03T14:54:46.706Z,1.25
2022-12-03T14:57:14.772Z,1.20
2022-12-03T14:59:42.402Z,1.11
2022-12-03T15:02:10.702Z,1.11
2022-12-03T15:04:37.998Z,1.11
2022-12-03T15:07:04.868Z,1.13
2022-12-03T15:09:31.266Z,1.13
2022-12-03T15:11:57.601Z,1.14
2022-12-03T15:14:24.116Z,1.24
2022-12-03T15:16:50.584Z,1.27
2022-12-03T15:19:16.976Z,1.27
2022-12-03T15:21:43.337Z,1.25
2022-12-03T15:24:10.410Z,1.24
2022-12-03T15:26:37.023Z,1.14
2022-12-03T15:29:03.366Z,1.08
2022-12-03T15:31:29.757Z,1.15
2022-12-03T15:33:56.078Z,1.16
2022-12-03T15:36:22.440Z,1.11
2022-12-03T15:38:48.833Z,1.11
2022-12-03T15:41:21.522Z,1.06
2022-12-03T15:43:48.553Z,1.08
2022-12-03T15:46:14.946Z,1.01
2022-12-03T15:48:41.424Z,1.11
2022-12-03T15:51:07.955Z,1.10
2022-12-03T15:53:34.283Z,1.06
2022-12-03T15:56:00.595Z,1.13
2022-12-03T15:58:26.902Z,1.06
2022-12-03T16:00:53.199Z,0.99
2022-12-03T16:03:19.652Z,0.97
2022-12-03T16:05:46.068Z,0.96
2022-12-03T16:08:12.470Z,0.94
2022-12-03T16:10:39.439Z,0.97
2022-12-03T16:13:05.806Z,0.95
2022-12-03T16:15:32.181Z,0.90
2022-12-03T16:17:58.548Z,0.89
2022-12-03T16:20:24.851Z,0.85
2022-12-03T16:22:52.064Z,0.83
2022-12-03T16:25:18.574Z,0.92
2022-12-03T16:27:44.873Z,0.90
2022-12-03T16:30:11.661Z,0.90
2022-12-03T16:32:38.043Z,0.80
2022-12-03T16:35:04.630Z,0.77
2022-12-03T16:37:31.146Z,0.82
2022-12-03T16:39:57.542Z,0.76
2022-12-03T16:42:24.357Z,0.75
2022-12-03T16:45:02.822Z,0.81
2022-12-03T16:47:33.578Z,0.88
2022-12-03T16:50:02.295Z,0.75
2022-12-03T16:52:28.756Z,0.80
2022-12-03T16:54:55.074Z,0.71
2022-12-03T16:57:21.619Z,0.68
2022-12-03T16:59:47.936Z,0.78
2022-12-03T17:02:14.428Z,0.76
2022-12-03T17:04:40.952Z,0.67
2022-12-03T17:07:07.264Z,0.62
2022-12-03T17:09:33.569Z,0.66
2022-12-03T17:11:59.938Z,0.61
2022-12-03T17:14:31.423Z,0.56
2022-12-03T17:16:59.496Z,0.62
2022-12-03T17:19:25.815Z,0.68
2022-12-03T17:21:53.866Z,0.68
2022-12-03T17:24:21.225Z,0.66
2022-12-03T17:26:47.532Z,0.73
2022-12-03T17:29:14.154Z,0.61
2022-12-03T17:31:42.620Z,0.53
2022-12-03T17:34:09.718Z,0.63
2022-12-03T17:36:36.060Z,0.68
2022-12-03T17:39:02.618Z,0.69
2022-12-03T17:41:28.975Z,0.54
2022-12-03T17:43:55.337Z,0.67
2022-12-03T17:46:21.754Z,0.64
2022-12-03T17:48:48.104Z,0.62
2022-12-03T17:51:14.557Z,0.54
2022-12-03T17:53:41.659Z,0.53
2022-12-03T17:56:08.203Z,0.57
2022-12-03T17:58:34.811Z,0.51
2022-12-03T18:01:03.063Z,0.60
2022-12-03T18:03:32.742Z,0.54
2022-12-03T18:05:59.151Z,0.58
2022-12-03T18:08:25.463Z,0.55
2022-12-03T18:10:51.838Z,0.52
2022-12-03T18:13:18.196Z,0.58
2022-12-03T18:15:44.698Z,0.62
2022-12-03T18:18:11.450Z,0.57
2022-12-03T18:20:38.049Z,0.53
2022-12-03T18:23:05.037Z,0.47
2022-12-03T18:25:31.617Z,0.50
2022-12-03T18:27:58.163Z,0.51
2022-12-03T18:30:24.560Z,0.56
2022-12-03T18:32:50.907Z,0.49
2022-12-03T18:35:17.926Z,0.47
2022-12-03T18:37:44.309Z,0.56
2022-12-03T18:40:17.845Z,0.57
2022-12-03T18:42:44.292Z,0.66
2022-12-03T18:45:11.895Z,0.69
2022-12-03T18:47:38.833Z,0.66
2022-12-03T18:50:06.319Z,0.60
2022-12-03T18:52:32.815Z,0.69
2022-12-03T18:54:59.116Z,0.62
2022-12-03T18:57:25.440Z,0.56
2022-12-03T18:59:52.003Z,0.61
2022-12-03T19:03:01.915Z,0.63
2022-12-03T19:05:10.026Z,0.61
2022-12-03T19:07:36.871Z,0.68
2022-12-03T19:10:04.469Z,0.60
2022-12-03T19:12:31.113Z,0.57
2022-12-03T19:14:57.463Z,0.57
2022-12-03T19:17:23.920Z,0.50
2022-12-03T19:19:50.225Z,0.55
2022-12-03T19:22:16.571Z,0.55
2022-12-03T19:24:43.589Z,0.53
2022-12-03T19:27:09.995Z,0.49
2022-12-03T19:29:36.310Z,0.54
2022-12-03T19:32:02.731Z,0.47
2022-12-03T19:34:29.797Z,0.45
2022-12-03T19:36:56.239Z,0.52
2022-12-03T19:39:22.572Z,0.56
2022-12-03T19:41:48.937Z,0.51
2022-12-03T19:44:17.365Z,0.47
2022-12-03T19:46:44.142Z,0.46
2022-12-03T19:49:11.320Z,0.51
2022-12-03T19:51:38.039Z,0.41
2022-12-03T19:54:06.332Z,0.39
2022-12-03T19:56:32.756Z,0.48
2022-12-03T19:58:59.106Z,0.47
2022-12-03T20:01:28.333Z,0.50
2022-12-03T20:03:57.300Z,0.36
2022-12-03T20:06:27.367Z,0.34
2022-12-03T20:09:02.119Z,0.33
2022-12-03T20:11:31.179Z,0.39
2022-12-03T20:14:03.265Z,0.46
2022-12-03T20:16:30.233Z,0.45
2022-12-03T20:18:59.192Z,0.38
2022-12-03T20:21:25.986Z,0.42
2022-12-03T20:23:52.972Z,0.39
2022-12-03T20:26:20.960Z,0.41
2022-12-03T20:28:50.180Z,0.37
2022-12-03T20:31:19.079Z,0.37
2022-12-03T20:33:48.295Z,0.33
2022-12-03T20:36:16.376Z,0.45
2022-12-03T20:38:44.875Z,0.49
2022-12-03T20:41:14.528Z,0.44
2022-12-03T20:43:41.118Z,0.38
2022-12-03T20:46:19.501Z,0.34
2022-12-03T20:48:46.249Z,0.45
2022-12-03T20:51:18.290Z,0.49
2022-12-03T20:53:45.316Z,0.42
2022-12-03T20:56:20.386Z,0.45
2022-12-03T20:58:48.849Z,0.44
2022-12-03T21:01:18.537Z,0.43
2022-12-03T21:03:49.484Z,0.42
2022-12-03T21:06:16.592Z,0.53
2022-12-03T21:08:43.705Z,0.46
2022-12-03T21:11:15.782Z,0.47
2022-12-03T21:13:43.790Z,0.42
2022-12-03T21:16:14.888Z,0.34
2022-12-03T21:18:42.383Z,0.47
2022-12-03T21:21:11.622Z,0.40
2022-12-03T21:23:38.034Z,0.39
2022-12-03T21:26:12.730Z,0.38
2022-12-03T21:28:41.065Z,0.34
2022-12-03T21:31:09.804Z,0.26
2022-12-03T21:33:37.134Z,0.31
2022-12-03T21:36:04.841Z,0.35
2022-12-03T21:38:32.145Z,0.36
2022-12-03T21:40:59.224Z,0.34
2022-12-03T21:43:25.773Z,0.34
2022-12-03T21:45:52.496Z,0.36
2022-12-03T21:48:20.137Z,0.42
2022-12-03T21:50:59.261Z,0.40
2022-12-03T21:53:25.938Z,0.38
2022-12-03T21:55:52.281Z,0.33
2022-12-03T21:58:18.617Z,0.25
2022-12-03T22:00:44.938Z,0.30
2022-12-03T22:03:11.301Z,0.33
2022-12-03T22:05:38.442Z,0.35
2022-12-03T22:08:05.142Z,0.34
2022-12-03T22:10:31.512Z,0.28
2022-12-03T22:12:57.818Z,0.30
2022-12-03T22:15:24.152Z,0.44
2022-12-03T22:17:50.512Z,0.35
2022-12-03T22:20:16.845Z,0.39
2022-12-03T22:22:43.234Z,0.37
2022-12-03T22:25:09.827Z,0.39
2022-12-03T22:27:36.156Z,0.40
2022-12-03T22:30:03.714Z,0.35
2022-12-03T22:32:30.068Z,0.26
2022-12-03T22:34:56.427Z,0.24
2022-12-03T22:37:22.816Z,0.28
2022-12-03T22:39:49.131Z,0.32
2022-12-03T22:42:15.454Z,0.32
2022-12-03T22:44:41.967Z,0.36
2022-12-03T22:47:08.381Z,0.44
2022-12-03T22:49:34.836Z,0.42
2022-12-03T22:52:01.169Z,0.38
2022-12-03T22:54:27.511Z,0.30
2022-12-03T22:56:53.819Z,0.38
2022-12-03T22:59:20.128Z,0.35
2022-12-03T23:01:47.265Z,0.31
2022-12-03T23:04:13.620Z,0.32
2022-12-03T23:06:40.120Z,0.34
2022-12-03T23:09:07.980Z,0.22
2022-12-03T23:11:34.713Z,0.30
2022-12-03T23:14:01.410Z,0.23
2022-12-03T23:16:30.153Z,0.33
2022-12-03T23:19:01.647Z,0.25
2022-12-03T23:21:30.905Z,0.26
2022-12-03T23:24:01.915Z,0.26
2022-12-03T23:26:28.854Z,0.32
2022-12-03T23:28:56.319Z,0.28
2022-12-03T23:31:26.157Z,0.20
2022-12-03T23:33:53.461Z,0.25
2022-12-03T23:36:20.705Z,0.23
2022-12-03T23:38:47.116Z,0.23
2022-12-03T23:41:16.176Z,0.28
2022-12-03T23:43:42.812Z,0.26
2022-12-03T23:46:15.471Z,0.30
2022-12-03T23:48:42.231Z,0.28
2022-12-03T23:51:14.242Z,0.35
2022-12-03T23:53:41.030Z,0.33
2022-12-03T23:56:12.886Z,0.33
2022-12-03T23:58:39.324Z,0.31
